createdAt,value
2018-06-11T00:00:46.213Z,83.10
2018-06-11T00:03:13.745Z,82.90
2018-06-11T00:05:41.341Z,82.90
2018-06-11T00:08:08.902Z,83.00
2018-06-11T00:10:36.477Z,82.80
2018-06-11T00:15:31.535Z,82.50
2018-06-11T00:17:59.124Z,82.30
2018-06-11T00:20:26.700Z,82.10
2018-06-11T00:22:54.314Z,82.30
2018-06-11T00:25:21.802Z,82.50
2018-06-11T00:27:49.343Z,82.90
2018-06-11T00:30:16.921Z,83.60
2018-06-11T00:32:44.484Z,84.00
2018-06-11T00:35:12.105Z,83.80
2018-06-11T00:37:39.669Z,83.90
2018-06-11T00:40:07.241Z,84.00
2018-06-11T00:42:34.792Z,83.80
2018-06-11T00:45:02.457Z,83.70
2018-06-11T00:47:30.082Z,83.30
2018-06-11T00:49:57.652Z,83.10
2018-06-11T00:52:25.274Z,83.00
2018-06-11T00:54:52.861Z,82.90
2018-06-11T00:57:20.414Z,82.90
2018-06-11T00:59:48.006Z,83.30
2018-06-11T01:02:15.564Z,83.80
2018-06-11T01:04:43.127Z,84.30
2018-06-11T01:07:10.695Z,83.90
2018-06-11T01:09:38.344Z,83.30
2018-06-11T01:12:05.915Z,82.90
2018-06-11T01:14:33.441Z,82.80
2018-06-11T01:17:00.999Z,82.80
2018-06-11T01:19:28.886Z,83.10
2018-06-11T01:21:56.438Z,83.00
2018-06-11T01:24:23.997Z,82.90
2018-06-11T01:26:51.598Z,83.30
2018-06-11T01:29:19.133Z,83.50
2018-06-11T01:31:46.797Z,83.70
2018-06-11T01:34:14.379Z,83.50
2018-06-11T01:36:41.906Z,83.10
2018-06-11T01:39:09.418Z,82.80
2018-06-11T01:41:36.913Z,82.70
2018-06-11T01:44:04.409Z,83.10
2018-06-11T01:46:31.922Z,83.30
2018-06-11T01:51:26.877Z,83.50
2018-06-11T01:53:54.438Z,83.40
2018-06-11T01:56:21.941Z,83.40
2018-06-11T02:01:16.902Z,84.40
2018-06-11T02:03:44.401Z,84.10
2018-06-11T02:06:11.946Z,83.50
2018-06-11T02:08:39.482Z,83.20
2018-06-11T02:11:07.004Z,83.30
2018-06-11T02:13:34.573Z,84.30
2018-06-11T02:16:02.145Z,85.00
2018-06-11T02:18:29.699Z,84.80
2018-06-11T02:20:57.226Z,84.80
2018-06-11T02:23:24.813Z,84.40
2018-06-11T02:25:52.344Z,84.30
2018-06-11T02:28:19.887Z,84.10
2018-06-11T02:30:47.421Z,84.10
2018-06-11T02:33:14.948Z,84.20
2018-06-11T02:35:42.511Z,84.50
2018-06-11T02:38:10.033Z,84.60
2018-06-11T02:40:37.560Z,84.40
2018-06-11T02:43:05.128Z,84.50
2018-06-11T02:45:32.673Z,84.30
2018-06-11T02:48:00.198Z,84.30
2018-06-11T02:50:27.777Z,84.80
2018-06-11T02:52:55.319Z,84.80
2018-06-11T02:55:22.862Z,84.70
2018-06-11T02:57:50.357Z,84.40
2018-06-11T03:00:17.888Z,84.30
2018-06-11T03:02:45.375Z,84.30
2018-06-11T03:05:12.910Z,84.40
2018-06-11T03:07:40.446Z,84.20
2018-06-11T03:10:07.942Z,84.30
2018-06-11T03:12:35.489Z,84.50
2018-06-11T03:15:03.000Z,84.90
2018-06-11T03:17:30.514Z,84.60
2018-06-11T03:19:58.085Z,84.30
2018-06-11T03:22:25.593Z,84.20
2018-06-11T03:24:53.122Z,84.20
2018-06-11T03:27:20.618Z,84.30
2018-06-11T03:29:48.137Z,85.10
2018-06-11T03:32:15.722Z,85.20
2018-06-11T03:34:43.241Z,85.30
2018-06-11T03:37:10.809Z,85.80
2018-06-11T03:39:38.342Z,86.10
2018-06-11T03:42:05.894Z,86.10
2018-06-11T03:44:33.417Z,86.10
2018-06-11T03:47:00.902Z,86.70
2018-06-11T03:49:28.438Z,86.70
2018-06-11T03:54:23.434Z,85.60
2018-06-11T03:56:50.982Z,85.00
2018-06-11T03:59:18.494Z,84.70
2018-06-11T04:01:46.037Z,84.60
2018-06-11T04:04:13.541Z,84.80
2018-06-11T04:06:41.061Z,84.50
2018-06-11T04:09:08.608Z,84.50
2018-06-11T04:11:36.200Z,84.50
2018-06-11T04:14:03.827Z,84.70
2018-06-11T04:16:31.333Z,84.60
2018-06-11T04:18:58.883Z,84.40
2018-06-11T04:21:26.529Z,84.60
2018-06-11T04:23:54.101Z,84.20
2018-06-11T04:26:21.662Z,83.70
2018-06-11T04:28:49.218Z,83.90
2018-06-11T04:31:16.764Z,84.20
2018-06-11T04:33:44.325Z,84.40
2018-06-11T04:36:11.820Z,84.80
2018-06-11T04:38:39.377Z,85.00
2018-06-11T04:41:06.945Z,85.10
2018-06-11T04:43:34.572Z,84.70
2018-06-11T04:46:02.174Z,84.70
2018-06-11T04:48:29.755Z,84.70
2018-06-11T04:50:57.341Z,84.40
2018-06-11T04:53:24.881Z,84.30
2018-06-11T04:55:52.421Z,84.20
2018-06-11T04:58:20.002Z,84.20
2018-06-11T05:00:48.227Z,84.10
2018-06-11T05:03:15.815Z,83.90
2018-06-11T05:05:43.502Z,83.50
2018-06-11T05:08:11.060Z,83.40
2018-06-11T05:10:38.620Z,83.70
2018-06-11T05:13:06.123Z,83.90
2018-06-11T05:15:33.679Z,83.70
2018-06-11T05:18:01.279Z,83.50
2018-06-11T05:20:28.860Z,83.40
2018-06-11T05:22:56.425Z,83.80
2018-06-11T05:25:23.916Z,83.90
2018-06-11T05:27:51.483Z,83.50
2018-06-11T05:30:19.041Z,83.40
2018-06-11T05:32:46.605Z,83.00
2018-06-11T05:35:14.184Z,82.70
2018-06-11T05:37:48.326Z,82.30
2018-06-11T05:40:15.856Z,82.00
2018-06-11T05:42:43.416Z,81.60
2018-06-11T05:45:10.929Z,82.20
2018-06-11T05:47:38.544Z,82.40
2018-06-11T05:50:06.160Z,81.80
2018-06-11T05:52:33.707Z,81.20
2018-06-11T05:55:01.292Z,80.90
2018-06-11T05:57:28.866Z,81.10
2018-06-11T05:59:56.493Z,80.80
2018-06-11T06:02:24.069Z,81.10
2018-06-11T06:04:51.610Z,80.80
2018-06-11T06:07:19.206Z,80.30
2018-06-11T06:09:46.812Z,80.50
2018-06-11T06:12:14.347Z,79.80
2018-06-11T06:14:41.944Z,79.40
2018-06-11T06:17:09.552Z,79.70
2018-06-11T06:19:37.139Z,79.70
2018-06-11T06:22:04.729Z,80.00
2018-06-11T06:24:32.353Z,80.40
2018-06-11T06:26:59.905Z,80.10
2018-06-11T06:29:27.444Z,79.50
2018-06-11T06:31:55.862Z,79.80
2018-06-11T06:34:23.449Z,80.10
2018-06-11T06:36:50.959Z,80.50
2018-06-11T06:39:18.495Z,80.60
2018-06-11T06:41:46.078Z,80.80
2018-06-11T06:44:13.681Z,80.90
2018-06-11T06:46:41.322Z,81.00
2018-06-11T06:49:08.944Z,80.40
2018-06-11T06:51:36.558Z,80.40
2018-06-11T06:54:04.166Z,80.00
2018-06-11T06:56:31.760Z,80.10
2018-06-11T06:58:59.311Z,79.50
2018-06-11T07:01:26.873Z,79.00
2018-06-11T07:03:54.460Z,77.50
2018-06-11T07:06:21.989Z,77.40
2018-06-11T07:08:49.580Z,76.50
2018-06-11T07:11:17.128Z,77.00
2018-06-11T07:13:45.961Z,77.80
2018-06-11T07:16:13.536Z,76.90
2018-06-11T07:18:41.105Z,76.00
2018-06-11T07:21:08.701Z,75.50
2018-06-11T07:23:36.314Z,73.50
2018-06-11T07:26:03.962Z,72.70
2018-06-11T07:28:31.579Z,74.40
2018-06-11T07:30:59.139Z,75.20
2018-06-11T07:33:26.754Z,75.60
2018-06-11T07:35:54.296Z,75.60
2018-06-11T07:38:21.922Z,75.30
2018-06-11T07:40:49.541Z,74.70
2018-06-11T07:43:17.153Z,73.30
2018-06-11T07:45:44.750Z,72.80
2018-06-11T07:48:12.293Z,72.70
2018-06-11T07:50:39.919Z,71.80
2018-06-11T07:53:07.528Z,71.30
2018-06-11T07:55:35.109Z,72.50
2018-06-11T07:58:02.720Z,71.90
2018-06-11T08:00:30.309Z,71.10
2018-06-11T08:02:57.869Z,69.70
2018-06-11T08:05:25.467Z,70.80
2018-06-11T08:07:53.064Z,71.50
2018-06-11T08:10:20.644Z,71.10
2018-06-11T08:12:48.247Z,70.60
2018-06-11T08:15:15.830Z,71.70
2018-06-11T08:17:43.413Z,70.70
2018-06-11T08:20:10.996Z,70.50
2018-06-11T08:22:38.580Z,67.50
2018-06-11T08:25:06.201Z,67.80
2018-06-11T08:27:33.825Z,67.30
2018-06-11T08:30:01.392Z,68.10
2018-06-11T08:32:29.015Z,67.30
2018-06-11T08:34:56.597Z,66.90
2018-06-11T08:37:24.191Z,66.00
2018-06-11T08:39:51.775Z,65.30
2018-06-11T08:42:19.363Z,62.80
2018-06-11T08:44:46.947Z,63.30
2018-06-11T08:47:14.533Z,63.30
2018-06-11T08:49:42.093Z,62.70
2018-06-11T08:52:09.916Z,62.50
2018-06-11T08:54:37.552Z,61.70
2018-06-11T08:57:05.224Z,60.60
2018-06-11T08:59:32.830Z,60.40
2018-06-11T09:02:00.543Z,57.40
2018-06-11T09:04:28.132Z,56.60
2018-06-11T09:06:55.809Z,57.00
2018-06-11T09:09:23.401Z,57.30
2018-06-11T09:11:50.993Z,56.40
2018-06-11T09:14:18.544Z,58.00
2018-06-11T09:19:13.673Z,57.60
2018-06-11T09:21:41.248Z,56.50
2018-06-11T09:24:08.829Z,56.30
2018-06-11T09:26:36.466Z,58.00
2018-06-11T09:29:04.077Z,56.80
2018-06-11T09:31:31.692Z,57.10
2018-06-11T09:33:59.306Z,57.80
2018-06-11T09:36:26.936Z,57.70
2018-06-11T09:38:54.500Z,55.50
2018-06-11T09:41:22.034Z,54.70
2018-06-11T09:43:49.658Z,53.50
2018-06-11T09:46:17.225Z,53.40
2018-06-11T09:48:44.837Z,52.30
2018-06-11T09:51:12.488Z,52.70
2018-06-11T09:53:40.047Z,52.30
2018-06-11T09:56:07.651Z,51.70
2018-06-11T09:58:35.218Z,48.70
2018-06-11T10:01:02.838Z,49.70
2018-06-11T10:03:30.427Z,52.00
2018-06-11T10:05:57.996Z,52.90
2018-06-11T10:08:25.572Z,51.70
2018-06-11T10:10:53.205Z,52.10
2018-06-11T10:13:20.872Z,53.60
2018-06-11T10:15:48.579Z,54.20
2018-06-11T10:18:16.195Z,54.20
2018-06-11T10:20:43.769Z,53.10
2018-06-11T10:23:11.381Z,52.60
2018-06-11T10:25:39.823Z,53.30
2018-06-11T10:28:07.436Z,53.40
2018-06-11T10:30:34.991Z,52.90
2018-06-11T10:33:02.585Z,52.00
2018-06-11T10:35:30.167Z,52.60
2018-06-11T10:37:57.771Z,52.50
2018-06-11T10:40:25.373Z,49.80
2018-06-11T10:42:52.933Z,46.40
2018-06-11T10:45:20.543Z,48.60
2018-06-11T10:47:48.161Z,47.40
2018-06-11T10:50:15.795Z,48.20
2018-06-11T10:52:43.404Z,46.30
2018-06-11T10:55:10.986Z,47.00
2018-06-11T10:57:38.562Z,46.60
2018-06-11T11:00:06.210Z,44.50
2018-06-11T11:02:33.879Z,45.30
2018-06-11T11:05:01.500Z,45.60
2018-06-11T11:07:29.082Z,44.40
2018-06-11T11:09:56.713Z,45.60
2018-06-11T11:12:24.311Z,41.80
2018-06-11T11:14:51.942Z,44.80
2018-06-11T11:17:19.507Z,45.50
2018-06-11T11:19:47.077Z,46.30
2018-06-11T11:22:14.670Z,44.90
2018-06-11T11:24:42.228Z,45.50
2018-06-11T11:27:09.898Z,46.90
2018-06-11T11:29:37.523Z,43.90
2018-06-11T11:32:05.181Z,42.20
2018-06-11T11:34:32.823Z,43.10
2018-06-11T11:37:00.470Z,42.60
2018-06-11T11:39:28.087Z,43.70
2018-06-11T11:41:55.652Z,40.80
2018-06-11T11:44:23.269Z,40.60
2018-06-11T11:46:50.924Z,40.20
2018-06-11T11:49:18.560Z,37.00
2018-06-11T11:51:46.191Z,39.10
2018-06-11T11:54:13.809Z,36.10
2018-06-11T11:56:41.444Z,36.60
2018-06-11T11:59:09.004Z,34.70
2018-06-11T12:01:36.596Z,35.40
2018-06-11T12:04:04.240Z,34.70
2018-06-11T12:06:31.869Z,36.30
2018-06-11T12:08:59.442Z,37.10
2018-06-11T12:11:27.031Z,36.10
2018-06-11T12:13:54.695Z,39.50
2018-06-11T12:16:22.340Z,39.00
2018-06-11T12:18:49.913Z,38.70
2018-06-11T12:23:45.070Z,40.00
2018-06-11T12:26:12.715Z,38.60
2018-06-11T12:28:40.352Z,38.70
2018-06-11T12:31:07.934Z,37.60
2018-06-11T12:33:35.553Z,35.90
2018-06-11T12:36:03.237Z,36.80
2018-06-11T12:38:30.844Z,35.70
2018-06-11T12:40:58.410Z,34.40
2018-06-11T12:43:27.039Z,34.80
2018-06-11T12:45:54.645Z,35.90
2018-06-11T12:48:22.218Z,36.30
2018-06-11T12:50:49.815Z,35.50
2018-06-11T12:53:17.406Z,35.20
2018-06-11T12:55:45.020Z,35.10
2018-06-11T12:58:12.694Z,35.80
2018-06-11T13:00:40.296Z,35.40
2018-06-11T13:03:07.914Z,35.30
2018-06-11T13:05:35.535Z,33.90
2018-06-11T13:08:03.144Z,37.60
2018-06-11T13:10:30.735Z,38.20
2018-06-11T13:12:58.314Z,38.80
2018-06-11T13:15:25.951Z,41.20
2018-06-11T13:17:53.526Z,43.20
2018-06-11T13:20:21.137Z,44.70
2018-06-11T13:22:48.743Z,46.10
2018-06-11T13:25:16.424Z,47.20
2018-06-11T13:27:44.026Z,48.20
2018-06-11T13:30:11.651Z,48.80
2018-06-11T13:32:39.275Z,49.70
2018-06-11T13:35:06.902Z,50.40
2018-06-11T13:37:34.574Z,50.90
2018-06-11T13:40:02.295Z,51.80
2018-06-11T13:42:29.918Z,50.80
2018-06-11T13:44:57.523Z,52.90
2018-06-11T13:47:25.153Z,53.00
2018-06-11T13:49:52.773Z,53.40
2018-06-11T13:52:20.471Z,53.90
2018-06-11T13:54:48.110Z,53.90
2018-06-11T13:57:15.786Z,54.90
2018-06-11T13:59:43.388Z,55.50
2018-06-11T14:02:11.002Z,55.50
2018-06-11T14:04:38.655Z,56.40
2018-06-11T14:07:06.241Z,55.90
2018-06-11T14:09:33.882Z,56.00
2018-06-11T14:12:01.529Z,55.60
2018-06-11T14:16:56.756Z,55.20
2018-06-11T14:19:24.470Z,54.30
2018-06-11T14:21:58.683Z,53.30
2018-06-11T14:24:26.286Z,52.40
2018-06-11T14:26:53.902Z,53.30
2018-06-11T14:29:21.545Z,53.20
2018-06-11T14:31:49.202Z,53.30
2018-06-11T14:34:16.842Z,53.70
2018-06-11T14:36:44.531Z,54.50
2018-06-11T14:39:12.163Z,54.30
2018-06-11T14:41:39.792Z,54.10
2018-06-11T14:44:07.444Z,54.80
2018-06-11T14:46:35.054Z,53.80
2018-06-11T14:49:02.678Z,55.40
2018-06-11T14:51:30.371Z,55.40
2018-06-11T14:53:57.996Z,53.60
2018-06-11T14:56:25.595Z,53.80
2018-06-11T14:58:53.262Z,54.60
2018-06-11T15:01:20.890Z,52.40
2018-06-11T15:03:48.546Z,54.10
2018-06-11T15:06:16.178Z,51.80
2018-06-11T15:08:43.832Z,49.70
2018-06-11T15:11:11.493Z,49.00
2018-06-11T15:13:39.245Z,50.30
2018-06-11T15:16:07.025Z,49.80
2018-06-11T15:18:34.686Z,49.50
2018-06-11T15:21:02.373Z,50.90
2018-06-11T15:23:30.061Z,51.20
2018-06-11T15:25:57.705Z,52.30
2018-06-11T15:28:25.426Z,53.60
2018-06-11T15:30:53.047Z,55.20
2018-06-11T15:33:20.715Z,55.10
2018-06-11T15:35:48.421Z,55.70
2018-06-11T15:38:16.085Z,56.70
2018-06-11T15:40:43.759Z,58.40
2018-06-11T15:43:11.468Z,58.20
2018-06-11T15:45:39.143Z,58.40
2018-06-11T15:48:06.737Z,59.30
2018-06-11T15:50:34.420Z,59.90
2018-06-11T15:53:02.043Z,62.70
2018-06-11T15:55:29.696Z,66.00
2018-06-11T15:57:57.287Z,69.10
2018-06-11T16:00:24.902Z,71.30
2018-06-11T16:02:52.510Z,70.10
2018-06-11T16:05:20.225Z,72.90
2018-06-11T16:07:47.804Z,75.00
2018-06-11T16:10:15.420Z,77.90
2018-06-11T16:12:43.084Z,83.00
2018-06-11T16:15:10.667Z,83.80
2018-06-11T16:17:38.385Z,84.50
2018-06-11T16:20:06.038Z,85.80
2018-06-11T16:22:33.648Z,84.90
2018-06-11T16:25:01.320Z,87.10
2018-06-11T16:27:28.940Z,89.00
2018-06-11T16:29:56.500Z,90.00
2018-06-11T16:32:24.135Z,90.40
2018-06-11T16:34:51.808Z,90.90
2018-06-11T16:37:19.439Z,91.00
2018-06-11T16:39:47.048Z,91.10
2018-06-11T16:42:14.634Z,89.80
2018-06-11T16:44:42.270Z,90.20
2018-06-11T16:47:09.978Z,89.70
2018-06-11T16:49:37.714Z,90.40
2018-06-11T16:52:05.517Z,90.40
2018-06-11T16:54:33.259Z,91.20
2018-06-11T16:57:00.948Z,90.40
2018-06-11T16:59:28.727Z,87.60
2018-06-11T17:01:56.379Z,87.90
2018-06-11T17:04:24.027Z,89.10
2018-06-11T17:06:51.761Z,87.70
2018-06-11T17:09:19.444Z,88.70
2018-06-11T17:11:47.214Z,87.70
2018-06-11T17:14:14.862Z,88.00
2018-06-11T17:16:42.543Z,87.70
2018-06-11T17:19:10.163Z,87.80
2018-06-11T17:24:05.483Z,86.20
2018-06-11T17:26:33.184Z,86.50
2018-06-11T17:29:00.866Z,87.80
2018-06-11T17:31:28.506Z,88.30
2018-06-11T17:33:56.184Z,88.20
2018-06-11T17:36:23.965Z,88.20
2018-06-11T17:38:51.694Z,87.50
2018-06-11T17:41:19.357Z,87.60
2018-06-11T17:43:47.126Z,87.00
2018-06-11T17:46:14.934Z,87.00
2018-06-11T17:48:42.613Z,87.30
2018-06-11T17:51:10.313Z,87.30
2018-06-11T17:53:38.205Z,87.00
2018-06-11T17:56:05.880Z,86.50
2018-06-11T17:58:33.658Z,85.70
2018-06-11T18:01:01.344Z,85.10
2018-06-11T18:03:29.089Z,84.90
2018-06-11T18:05:56.989Z,85.80
2018-06-11T18:08:24.671Z,83.00
2018-06-11T18:10:52.344Z,85.10
2018-06-11T18:13:20.080Z,84.40
2018-06-11T18:15:47.856Z,85.30
2018-06-11T18:18:15.580Z,84.80
2018-06-11T18:20:43.357Z,84.70
2018-06-11T18:23:11.479Z,83.80
2018-06-11T18:25:39.255Z,83.20
2018-06-11T18:28:06.941Z,83.80
2018-06-11T18:30:34.664Z,84.30
2018-06-11T18:33:02.444Z,83.80
2018-06-11T18:35:30.173Z,83.60
2018-06-11T18:37:57.824Z,83.50
2018-06-11T18:40:25.601Z,83.90
2018-06-11T18:42:53.306Z,83.90
2018-06-11T18:45:20.986Z,85.60
2018-06-11T18:47:48.667Z,85.60
2018-06-11T18:50:16.363Z,85.30
2018-06-11T18:52:43.976Z,85.40
2018-06-11T18:55:11.674Z,85.60
2018-06-11T18:57:39.408Z,85.00
2018-06-11T19:00:07.234Z,84.70
2018-06-11T19:02:34.902Z,84.50
2018-06-11T19:05:02.585Z,84.80
2018-06-11T19:07:30.295Z,84.80
2018-06-11T19:10:04.825Z,84.40
2018-06-11T19:12:32.517Z,84.70
2018-06-11T19:15:00.245Z,83.00
2018-06-11T19:17:27.908Z,83.50
2018-06-11T19:19:55.639Z,84.70
2018-06-11T19:22:23.319Z,84.60
2018-06-11T19:24:51.006Z,84.50
2018-06-11T19:27:18.840Z,84.70
2018-06-11T19:29:46.562Z,84.30
2018-06-11T19:32:14.162Z,84.00
2018-06-11T19:34:41.866Z,85.20
2018-06-11T19:37:09.521Z,84.40
2018-06-11T19:39:37.286Z,85.30
2018-06-11T19:42:05.051Z,85.40
2018-06-11T19:44:32.821Z,84.50
2018-06-11T19:47:00.599Z,85.30
2018-06-11T19:49:28.322Z,84.60
2018-06-11T19:51:56.101Z,84.40
2018-06-11T19:54:23.832Z,83.30
2018-06-11T19:56:51.499Z,83.30
2018-06-11T19:59:19.172Z,83.70
2018-06-11T20:01:46.834Z,84.60
2018-06-11T20:04:14.542Z,84.10
2018-06-11T20:06:42.155Z,83.30
2018-06-11T20:09:09.797Z,83.60
2018-06-11T20:11:37.470Z,84.10
2018-06-11T20:14:05.215Z,85.50
2018-06-11T20:16:32.913Z,84.10
2018-06-11T20:19:00.641Z,84.90
2018-06-11T20:21:28.232Z,84.30
2018-06-11T20:23:55.925Z,84.70
2018-06-11T20:26:23.561Z,84.60
2018-06-11T20:28:51.215Z,85.00
2018-06-11T20:31:18.865Z,85.00
2018-06-11T20:33:46.542Z,85.10
2018-06-11T20:36:14.295Z,85.90
2018-06-11T20:38:41.954Z,85.70
2018-06-11T20:41:09.631Z,86.00
2018-06-11T20:43:37.305Z,86.00
2018-06-11T20:46:05.004Z,85.60
2018-06-11T20:48:32.725Z,86.00
2018-06-11T20:51:00.446Z,85.80
2018-06-11T20:53:28.078Z,85.70
2018-06-11T20:55:55.714Z,85.90
2018-06-11T20:58:23.382Z,85.60
2018-06-11T21:00:51.036Z,86.50
2018-06-11T21:03:18.717Z,86.00
2018-06-11T21:05:46.459Z,86.20
2018-06-11T21:08:14.124Z,86.70
2018-06-11T21:10:41.844Z,86.60
2018-06-11T21:13:09.603Z,86.20
2018-06-11T21:15:37.319Z,86.40
2018-06-11T21:18:05.064Z,86.60
2018-06-11T21:20:32.815Z,87.30
2018-06-11T21:23:00.505Z,87.50
2018-06-11T21:25:28.300Z,87.10
2018-06-11T21:27:55.994Z,87.10
2018-06-11T21:30:23.616Z,87.20
2018-06-11T21:32:51.258Z,87.30
2018-06-11T21:35:19.026Z,87.60
2018-06-11T21:37:46.696Z,87.90
2018-06-11T21:40:14.307Z,87.60
2018-06-11T21:42:42.707Z,87.40
2018-06-11T21:45:10.293Z,87.30
2018-06-11T21:47:37.881Z,86.70
2018-06-11T21:50:05.501Z,86.40
2018-06-11T21:52:33.106Z,86.20
2018-06-11T21:55:00.695Z,86.10
2018-06-11T21:57:28.878Z,85.90
2018-06-11T21:59:56.537Z,86.50
2018-06-11T22:02:24.088Z,87.60
2018-06-11T22:04:51.681Z,87.30
2018-06-11T22:07:19.316Z,87.50
2018-06-11T22:09:47.561Z,87.80
2018-06-11T22:12:15.113Z,88.10
2018-06-11T22:14:42.707Z,87.50
2018-06-11T22:19:44.471Z,87.10
2018-06-11T22:22:12.071Z,86.90
2018-06-11T22:24:39.695Z,86.80
2018-06-11T22:27:07.338Z,87.00
2018-06-11T22:29:34.957Z,87.40
2018-06-11T22:32:03.142Z,86.80
2018-06-11T22:34:30.724Z,86.60
2018-06-11T22:36:58.375Z,86.30
2018-06-11T22:41:53.453Z,86.60
2018-06-11T22:44:21.031Z,86.90
2018-06-11T22:46:48.628Z,86.70
2018-06-11T22:49:16.170Z,86.80
2018-06-11T22:51:43.743Z,86.80
2018-06-11T22:54:11.340Z,86.90
2018-06-11T22:56:38.938Z,87.30
2018-06-11T22:59:06.530Z,86.90
2018-06-11T23:01:34.149Z,87.20
2018-06-11T23:04:01.729Z,86.90
2018-06-11T23:06:29.314Z,86.60
2018-06-11T23:08:56.874Z,86.50
2018-06-11T23:11:24.473Z,86.70
2018-06-11T23:13:52.149Z,86.60
2018-06-11T23:16:19.686Z,86.60
2018-06-11T23:18:47.240Z,86.60
2018-06-11T23:21:14.822Z,86.30
2018-06-11T23:23:42.399Z,86.10
2018-06-11T23:26:09.954Z,86.10
2018-06-11T23:28:37.511Z,86.30
2018-06-11T23:31:05.163Z,85.80
2018-06-11T23:33:32.720Z,85.90
2018-06-11T23:36:00.285Z,85.50
2018-06-11T23:38:27.908Z,85.90
2018-06-11T23:40:55.525Z,86.00
2018-06-11T23:43:23.139Z,86.30
2018-06-11T23:45:50.769Z,86.40
2018-06-11T23:48:18.347Z,86.10
2018-06-11T23:50:45.920Z,85.70
2018-06-11T23:53:13.528Z,85.80
2018-06-11T23:55:41.091Z,86.10
2018-06-11T23:58:08.661Z,86.20
